Time;durP1;ratioP1;P1;durP2;ratioP2;P2;SDS_P1;SDS_P2;PMS_P1;PMS_P2;Temp;Humidity;BMP_temperature;BMP_pressure;BME280_temperature;BME280_humidity;BME280_pressure;Samples;Min_cycle;Max_cycle;Signal;HPM_P1;HPM_P2
2022/06/27 00:01:08;;;;;;;;;2.67;2.33;;;;;25.20;48.60;98499.69;4936860;28;102374;-62
2022/06/27 00:03:35;;;;;;;;;2.33;2.33;;;;;25.20;48.55;98499.69;4929924;28;102309;-61
2022/06/27 00:06:03;;;;;;;;;2.67;2.00;;;;;25.18;48.47;98499.16;4914760;28;102463;-62
2022/06/27 00:08:30;;;;;;;;;3.00;3.00;;;;;25.18;48.72;98488.09;4920018;28;104084;-62
2022/06/27 00:10:57;;;;;;;;;3.00;3.00;;;;;25.17;48.57;98497.53;4925190;28;102540;-62
2022/06/27 00:13:24;;;;;;;;;3.00;3.00;;;;;25.18;48.66;98496.38;4924674;28;102280;-61
2022/06/27 00:15:51;;;;;;;;;2.67;2.67;;;;;25.16;48.80;98495.88;4936039;28;102577;-62
2022/06/27 00:18:18;;;;;;;;;3.00;2.00;;;;;25.16;48.52;98499.47;4939371;28;109370;-62
2022/06/27 00:20:46;;;;;;;;;2.00;1.67;;;;;25.15;48.43;98502.53;4940342;28;102225;-62
2022/06/27 00:23:13;;;;;;;;;1.00;1.00;;;;;25.15;48.68;98497.00;4932851;28;102248;-62
2022/06/27 00:25:40;;;;;;;;;4.00;2.33;;;;;25.16;48.75;98493.13;4931835;28;102353;-62
2022/06/27 00:28:07;;;;;;;;;1.33;1.33;;;;;25.14;48.50;98485.09;4937618;28;104283;-62
2022/06/27 00:30:35;;;;;;;;;2.00;2.00;;;;;25.16;48.58;98498.66;4937801;28;102473;-62
2022/06/27 00:33:02;;;;;;;;;3.33;2.00;;;;;25.15;48.66;98497.00;4936122;28;103269;-62
2022/06/27 00:35:29;;;;;;;;;2.33;2.33;;;;;25.15;48.65;98497.00;4943924;28;102524;-62
2022/06/27 00:37:56;;;;;;;;;2.00;1.33;;;;;25.14;48.75;98498.94;4940278;28;104129;-62
2022/06/27 00:40:24;;;;;;;;;2.33;2.33;;;;;25.15;48.73;98491.47;4933980;28;102062;-61
2022/06/27 00:42:51;;;;;;;;;2.00;2.00;;;;;25.14;48.70;98484.28;4941682;28;102144;-62
2022/06/27 00:45:18;;;;;;;;;2.00;2.00;;;;;25.14;48.50;98489.81;4941069;28;102176;-62
2022/06/27 00:47:46;;;;;;;;;4.33;2.33;;;;;25.13;48.74;98479.84;4931313;28;103199;-62
2022/06/27 00:50:13;;;;;;;;;2.67;2.33;;;;;25.12;48.83;98492.06;4938269;28;101936;-62
2022/06/27 00:52:40;;;;;;;;;3.67;3.67;;;;;25.11;48.62;98496.78;4927742;28;104531;-62
2022/06/27 00:55:08;;;;;;;;;2.33;2.00;;;;;25.11;48.57;98484.88;4927187;28;102287;-62
2022/06/27 00:57:36;;;;;;;;;2.33;2.33;;;;;25.12;48.69;98498.44;4934554;28;104282;-62
2022/06/27 01:00:04;;;;;;;;;3.00;2.00;;;;;25.11;48.54;98496.78;4912280;28;102128;-62
2022/06/27 01:02:31;;;;;;;;;1.00;1.00;;;;;25.11;48.75;98501.47;4908366;28;102344;-62
2022/06/27 01:04:59;;;;;;;;;2.33;2.00;;;;;25.11;48.78;98499.53;4935756;28;102407;-61
2022/06/27 01:07:26;;;;;;;;;3.33;2.67;;;;;25.11;48.49;98502.31;4928254;28;104715;-62
2022/06/27 01:09:53;;;;;;;;;2.00;2.00;;;;;25.10;48.76;98503.44;4916348;28;102232;-62
2022/06/27 01:12:21;;;;;;;;;3.00;2.00;;;;;25.10;48.53;98499.81;4863125;28;102347;-62
2022/06/27 01:14:48;;;;;;;;;1.67;1.67;;;;;25.10;48.92;98500.66;4921499;28;102526;-62
2022/06/27 01:17:15;;;;;;;;;3.67;3.00;;;;;25.09;48.75;98492.66;4918586;28;104184;-62
2022/06/27 01:19:42;;;;;;;;;3.00;3.00;;;;;25.09;48.84;98499.00;4963824;28;102533;-62
2022/06/27 01:22:10;;;;;;;;;1.67;1.67;;;;;25.08;48.89;98499.31;4932965;28;103044;-62
2022/06/27 01:24:37;;;;;;;;;2.00;2.00;;;;;25.07;48.62;98495.72;4933341;28;102535;-62
2022/06/27 01:27:05;;;;;;;;;3.00;3.00;;;;;25.07;48.70;98494.91;4937728;28;104232;-61
2022/06/27 01:29:32;;;;;;;;;3.00;3.00;;;;;25.06;48.91;98488.53;4927242;28;102265;-61
2022/06/27 01:32:00;;;;;;;;;2.00;2.00;;;;;25.07;48.56;98494.91;4945006;28;102143;-62
2022/06/27 01:34:27;;;;;;;;;3.00;3.00;;;;;25.07;48.86;98483.84;4943966;28;102270;-62
2022/06/27 01:36:55;;;;;;;;;2.00;2.00;;;;;25.06;48.59;98482.19;4929847;28;104169;-62
2022/06/27 01:39:24;;;;;;;;;2.00;2.00;;;;;25.07;48.56;98486.59;4931916;28;109197;-62
2022/06/27 01:41:58;;;;;;;;;2.33;2.00;;;;;25.06;48.74;98488.53;4936136;28;102616;-62
2022/06/27 01:44:27;;;;;;;;;3.00;2.00;;;;;25.07;48.89;98489.38;4915341;28;102663;-62
2022/06/27 01:47:05;;;;;;;;;3.00;2.00;;;;;25.06;48.87;98493.25;4935845;28;104314;-62
2022/06/27 01:49:33;;;;;;;;;2.67;2.67;;;;;25.06;48.75;98487.72;4935636;28;102486;-62
2022/06/27 01:52:01;;;;;;;;;2.33;2.33;;;;;25.03;48.85;98486.38;4948126;28;102799;-62
2022/06/27 01:54:31;;;;;;;;;2.00;2.00;;;;;25.04;48.76;98487.19;4938632;28;102411;-62
2022/06/27 01:56:58;;;;;;;;;2.67;2.00;;;;;25.04;48.77;98489.94;4933787;28;108773;-62
2022/06/27 01:59:27;;;;;;;;;2.00;2.00;;;;;25.04;48.65;98495.47;4936638;28;102179;-62
2022/06/27 02:01:54;;;;;;;;;3.00;2.00;;;;;25.03;49.00;98480.03;4940503;28;102386;-62
2022/06/27 02:04:21;;;;;;;;;3.00;3.00;;;;;25.03;48.63;98489.16;4941112;28;102288;-61
2022/06/27 02:06:49;;;;;;;;;2.00;2.00;;;;;25.03;48.78;98482.78;4938881;28;104058;-62
2022/06/27 02:09:16;;;;;;;;;1.33;1.33;;;;;25.03;48.66;98480.84;4920577;28;102539;-62
2022/06/27 02:11:44;;;;;;;;;2.00;2.00;;;;;25.03;48.64;98483.63;4942866;28;103169;-62
2022/06/27 02:14:11;;;;;;;;;2.67;2.67;;;;;25.02;48.88;98487.50;4946386;28;102572;-62
2022/06/27 02:16:41;;;;;;;;;2.67;2.67;;;;;25.02;48.73;98489.44;4930386;28;104197;-62
2022/06/27 02:19:13;;;;;;;;;4.00;4.00;;;;;25.02;48.81;98483.91;4925601;28;102525;-62
2022/06/27 02:21:41;;;;;;;;;1.67;1.67;;;;;25.01;48.67;98488.59;4939933;28;102342;-62
2022/06/27 02:24:09;;;;;;;;;2.00;1.00;;;;;25.00;48.87;98489.72;4945065;28;102432;-62
2022/06/27 02:26:36;;;;;;;;;3.00;3.00;;;;;25.00;48.86;98486.94;4939221;28;104266;-62
2022/06/27 02:29:03;;;;;;;;;3.00;3.00;;;;;25.00;48.61;98494.44;4933899;28;103984;-61
2022/06/27 02:31:30;;;;;;;;;3.00;3.00;;;;;24.98;48.79;98491.16;4945888;28;102183;-62
2022/06/27 02:33:58;;;;;;;;;2.00;1.67;;;;;24.98;48.78;98491.97;4943967;28;102348;-62
2022/06/27 02:36:33;;;;;;;;;2.00;2.00;;;;;24.99;48.93;98493.59;4923871;28;104250;-62
2022/06/27 02:39:00;;;;;;;;;2.67;2.00;;;;;24.99;48.80;98503.88;4915050;28;102558;-62
2022/06/27 02:41:29;;;;;;;;;0.67;0.67;;;;;24.99;48.96;98492.81;4924203;28;102098;-62
2022/06/27 02:44:01;;;;;;;;;2.50;2.50;;;;;24.98;48.73;98496.69;4975866;28;102466;-62
2022/06/27 02:46:28;;;;;;;;;2.00;2.00;;;;;24.98;48.90;98491.16;4942231;28;104172;-62
2022/06/27 02:48:55;;;;;;;;;2.00;2.00;;;;;24.98;48.70;98499.44;4976065;28;102926;-62
2022/06/27 02:51:25;;;;;;;;;4.00;2.67;;;;;24.98;48.53;98502.22;4932090;28;102378;-62
2022/06/27 02:54:01;;;;;;;;;3.00;3.00;;;;;24.97;49.00;98500.56;4941138;28;101971;-62
2022/06/27 02:56:28;;;;;;;;;2.67;2.67;;;;;24.96;48.79;98498.91;4944702;28;104225;-62
2022/06/27 02:59:01;;;;;;;;;2.00;2.00;;;;;24.95;48.62;98508.34;4935922;28;103956;-62
2022/06/27 03:01:29;;;;;;;;;2.00;2.00;;;;;24.94;48.84;98496.47;4938418;28;102292;-62
2022/06/27 03:03:58;;;;;;;;;2.67;2.67;;;;;24.94;48.65;98501.16;4936788;28;102231;-62
2022/06/27 03:06:25;;;;;;;;;2.00;2.00;;;;;24.94;48.92;98506.69;4933389;28;104249;-62
2022/06/27 03:08:52;;;;;;;;;3.00;3.00;;;;;24.94;48.82;98501.16;4936716;28;102106;-62
2022/06/27 03:11:21;;;;;;;;;2.33;2.33;;;;;24.93;48.68;98499.50;4940842;28;101986;-62
2022/06/27 03:13:48;;;;;;;;;4.00;3.00;;;;;24.93;48.92;98510.59;4927855;28;102310;-62
2022/06/27 03:16:15;;;;;;;;;1.00;1.00;;;;;24.92;48.92;98500.63;4940056;28;104125;-62
2022/06/27 03:18:43;;;;;;;;;3.00;3.00;;;;;24.91;48.75;98510.88;4939898;28;102184;-62
2022/06/27 03:21:11;;;;;;;;;1.33;1.33;;;;;24.92;49.02;98508.94;4930651;28;102411;-62
2022/06/27 03:23:39;;;;;;;;;2.33;2.00;;;;;24.92;48.84;98507.00;4937072;28;102341;-62
2022/06/27 03:26:06;;;;;;;;;1.00;1.00;;;;;24.91;48.67;98505.34;4923466;28;104046;-62
2022/06/27 03:28:33;;;;;;;;;2.67;2.67;;;;;24.91;49.05;98502.56;4936816;28;102211;-62
2022/06/27 03:31:00;;;;;;;;;1.67;1.67;;;;;24.91;49.01;98501.75;4937501;28;102333;-62
2022/06/27 03:33:28;;;;;;;;;2.00;2.00;;;;;24.91;48.87;98507.28;4933081;28;102235;-62
2022/06/27 03:36:00;;;;;;;;;1.00;1.00;;;;;24.90;48.72;98511.19;4927974;28;104059;-62
2022/06/27 03:38:27;;;;;;;;;2.33;2.33;;;;;24.90;48.69;98516.72;4927793;28;102418;-62
2022/06/27 03:40:54;;;;;;;;;3.00;3.00;;;;;24.88;48.86;98512.28;4932777;28;102255;-62
2022/06/27 03:43:21;;;;;;;;;3.00;3.00;;;;;24.88;48.81;98517.81;4936740;28;102491;-62
2022/06/27 03:45:48;;;;;;;;;2.33;2.00;;;;;24.89;48.99;98515.88;4935096;28;104086;-62
2022/06/27 03:51:01;;;;;;;;;2.00;2.00;;;;;24.91;48.73;98523.88;4939222;28;105171;-62
2022/06/27 03:53:28;;;;;;;;;2.00;2.00;;;;;24.90;48.74;98523.06;4935296;28;102211;-62
2022/06/27 03:55:55;;;;;;;;;2.00;2.00;;;;;24.91;48.90;98518.34;4934689;28;104101;-62
2022/06/27 03:58:22;;;;;;;;;2.00;2.00;;;;;24.88;48.94;98526.13;4938994;28;102262;-62
2022/06/27 04:00:49;;;;;;;;;2.33;2.00;;;;;24.88;48.87;98531.66;4926060;28;103088;-62
2022/06/27 04:03:16;;;;;;;;;2.67;2.67;;;;;24.88;49.00;98531.66;4932907;28;109635;-62
2022/06/27 04:05:43;;;;;;;;;2.00;2.00;;;;;24.88;48.92;98531.66;4922463;28;104078;-62
2022/06/27 04:08:11;;;;;;;;;1.00;1.00;;;;;24.88;48.76;98531.66;4908772;28;102166;-62
2022/06/27 04:10:38;;;;;;;;;2.00;2.00;;;;;24.88;48.86;98534.44;4933173;28;101951;-62
2022/06/27 04:13:05;;;;;;;;;2.67;2.00;;;;;24.87;48.95;98527.25;4940003;28;102187;-62
2022/06/27 04:15:32;;;;;;;;;2.00;2.00;;;;;24.89;48.70;98532.47;4941040;28;104074;-62
2022/06/27 04:17:59;;;;;;;;;3.33;3.00;;;;;24.88;48.69;98519.75;4941784;28;102143;-62
2022/06/27 04:20:26;;;;;;;;;2.33;2.33;;;;;24.88;48.52;98526.13;4931385;28;102230;-62
2022/06/27 04:22:53;;;;;;;;;2.00;2.00;;;;;24.90;48.74;98525.84;4940338;28;102155;-62
2022/06/27 04:25:20;;;;;;;;;2.33;2.33;;;;;24.90;48.61;98534.13;4933585;28;104084;-62
2022/06/27 04:27:47;;;;;;;;;2.00;2.00;;;;;24.90;49.03;98528.59;4931316;28;104130;-62
2022/06/27 04:30:17;;;;;;;;;2.33;2.00;;;;;24.89;48.70;98532.47;4940343;28;102275;-62
2022/06/27 04:32:45;;;;;;;;;2.67;2.67;;;;;24.90;48.87;98534.13;4923471;28;102499;-62
2022/06/27 04:35:12;;;;;;;;;2.00;2.00;;;;;24.89;48.64;98535.25;4944915;28;105779;-62
2022/06/27 04:37:42;;;;;;;;;1.67;1.67;;;;;24.90;48.99;98541.63;4931684;28;102185;-61
2022/06/27 04:40:11;;;;;;;;;2.67;2.00;;;;;24.89;48.58;98535.25;4945211;28;102021;-62
2022/06/27 04:42:39;;;;;;;;;1.67;1.67;;;;;24.88;48.78;98537.19;4935147;28;109903;-61
2022/06/27 04:45:12;;;;;;;;;2.67;2.00;;;;;24.88;48.70;98542.72;4947718;28;108784;-62
2022/06/27 04:47:43;;;;;;;;;2.33;2.33;;;;;24.88;48.96;98537.19;4941542;28;103078;-61
2022/06/27 04:50:11;;;;;;;;;2.00;2.00;;;;;24.91;48.59;98537.69;4927778;28;102335;-61
2022/06/27 04:52:38;;;;;;;;;1.33;1.33;;;;;24.89;48.76;98538.03;4944824;28;104077;-62
2022/06/27 04:55:07;;;;;;;;;3.00;3.00;;;;;24.92;48.46;98533.81;4933719;28;104085;-62
2022/06/27 04:57:37;;;;;;;;;2.00;2.00;;;;;24.91;48.54;98540.47;4945836;28;102815;-62
2022/06/27 05:00:08;;;;;;;;;2.00;2.00;;;;;24.91;48.67;98543.22;4931390;28;103478;-62
2022/06/27 05:02:35;;;;;;;;;2.00;2.00;;;;;24.91;48.57;98546.81;4931127;28;102141;-62
2022/06/27 05:05:03;;;;;;;;;2.00;2.00;;;;;24.91;48.88;98540.47;4927709;28;104083;-62
2022/06/27 05:07:31;;;;;;;;;2.00;2.00;;;;;24.91;48.67;98546.81;4940398;28;102360;-62
2022/06/27 05:09:58;;;;;;;;;1.33;1.33;;;;;24.91;48.60;98540.47;4923080;28;103034;-61
2022/06/27 05:12:26;;;;;;;;;2.00;2.00;;;;;24.91;48.96;98551.53;4926808;28;101970;-61
2022/06/27 05:14:53;;;;;;;;;1.33;1.33;;;;;24.92;48.83;98555.94;4938719;28;104223;-61
2022/06/27 05:17:21;;;;;;;;;1.00;1.00;;;;;24.92;48.58;98554.00;4934205;28;102183;-62
2022/06/27 05:19:48;;;;;;;;;2.00;2.00;;;;;24.91;48.75;98555.13;4926924;28;102394;-61
2022/06/27 05:22:15;;;;;;;;;2.00;2.00;;;;;24.93;48.78;98568.66;4928643;28;102632;-62
2022/06/27 05:24:42;;;;;;;;;2.00;2.00;;;;;24.93;48.51;98565.91;4934782;28;104080;-61
2022/06/27 05:27:19;;;;;;;;;3.00;2.00;;;;;24.94;48.69;98565.63;4930469;28;102416;-61
2022/06/27 05:29:46;;;;;;;;;1.00;1.00;;;;;24.94;48.64;98573.09;4932785;28;102360;-62
2022/06/27 05:32:13;;;;;;;;;1.00;1.00;;;;;24.94;48.51;98570.34;4929688;28;102184;-62
2022/06/27 05:34:40;;;;;;;;;2.33;2.33;;;;;24.94;48.67;98568.38;4935171;28;104284;-62
2022/06/27 05:37:08;;;;;;;;;1.67;1.33;;;;;24.94;48.58;98571.16;4924964;28;102706;-61
2022/06/27 05:39:35;;;;;;;;;2.33;2.33;;;;;24.94;48.83;98573.09;4933795;28;102410;-62
2022/06/27 05:42:03;;;;;;;;;2.00;2.00;;;;;24.94;48.62;98575.88;4922084;28;103915;-62
2022/06/27 05:44:30;;;;;;;;;1.67;1.67;;;;;24.94;48.83;98573.09;4924158;28;104181;-61
2022/06/27 05:46:58;;;;;;;;;1.00;1.00;;;;;24.94;48.50;98578.63;4934965;28;102382;-61
2022/06/27 05:49:25;;;;;;;;;3.00;2.33;;;;;24.94;48.67;98578.63;4931425;28;102334;-62
2022/06/27 05:51:56;;;;;;;;;1.67;1.67;;;;;24.94;48.77;98573.91;4931570;28;102187;-62
2022/06/27 05:54:24;;;;;;;;;1.00;1.00;;;;;24.95;48.87;98569.22;4936471;28;104650;-62
2022/06/27 05:56:51;;;;;;;;;2.33;2.33;;;;;24.95;48.48;98570.00;4966160;28;102447;-61
2022/06/27 05:59:19;;;;;;;;;3.00;3.00;;;;;24.96;48.62;98573.59;4934181;28;102117;-62
2022/06/27 06:01:46;;;;;;;;;1.67;1.67;;;;;24.96;48.56;98579.97;4939805;28;102483;-62
2022/06/27 06:04:13;;;;;;;;;1.67;1.67;;;;;24.96;48.55;98582.72;4940179;28;104084;-61
2022/06/27 06:06:43;;;;;;;;;1.67;1.67;;;;;24.97;48.59;98578.84;4942401;28;102391;-61
2022/06/27 06:09:13;;;;;;;;;0.00;0.00;;;;;24.98;48.36;98576.91;4937775;28;102237;-62
2022/06/27 06:11:41;;;;;;;;;2.00;2.00;;;;;24.97;48.66;98580.78;4936628;28;102502;-62
2022/06/27 06:14:08;;;;;;;;;3.00;2.33;;;;;24.97;48.55;98572.50;4943489;28;109918;-62
2022/06/27 06:16:36;;;;;;;;;2.00;2.00;;;;;24.97;48.51;98584.38;4942074;28;102116;-61
2022/06/27 06:19:04;;;;;;;;;1.33;1.33;;;;;24.97;48.63;98575.25;4936804;28;102433;-62
2022/06/27 06:21:32;;;;;;;;;2.67;2.00;;;;;24.97;48.63;98578.03;4941478;28;102716;-62
2022/06/27 06:23:59;;;;;;;;;1.00;1.00;;;;;24.97;48.47;98581.63;4933708;28;104448;-61
2022/06/27 06:26:26;;;;;;;;;0.67;0.67;;;;;24.98;48.68;98579.69;4939593;28;102421;-62
2022/06/27 06:28:53;;;;;;;;;1.00;1.00;;;;;24.97;48.77;98581.63;4945481;28;103513;-61
2022/06/27 06:31:23;;;;;;;;;2.00;2.00;;;;;25.00;48.62;98580.19;4939768;28;102216;-61
2022/06/27 06:33:52;;;;;;;;;2.00;2.00;;;;;24.99;48.41;98587.66;4938997;28;104047;-61
2022/06/27 06:36:21;;;;;;;;;2.33;2.00;;;;;25.00;48.52;98585.72;4940932;28;102099;-61
2022/06/27 06:38:50;;;;;;;;;3.00;2.33;;;;;24.99;48.53;98593.19;4935563;28;102100;-61
2022/06/27 06:41:17;;;;;;;;;2.00;2.00;;;;;25.00;48.68;98594.84;4940240;28;102228;-62
2022/06/27 06:43:46;;;;;;;;;1.67;1.67;;;;;25.00;48.55;98588.50;4943781;28;104164;-61
2022/06/27 06:46:13;;;;;;;;;1.00;1.00;;;;;25.00;48.60;98588.50;4940562;28;102255;-62
2022/06/27 06:48:41;;;;;;;;;1.00;1.00;;;;;25.01;48.56;98587.38;4934925;28;102213;-62
2022/06/27 06:51:16;;;;;;;;;1.67;1.67;;;;;25.00;48.54;98582.97;4942354;28;102155;-62
2022/06/27 06:53:45;;;;;;;;;2.33;2.33;;;;;25.01;48.58;98584.63;4937393;28;108926;-61
2022/06/27 06:56:12;;;;;;;;;2.00;2.00;;;;;25.01;48.60;98582.69;4934324;28;102461;-61
2022/06/27 06:58:40;;;;;;;;;1.67;1.67;;;;;25.02;48.58;98586.28;4935591;28;102011;-62
2022/06/27 07:01:07;;;;;;;;;3.00;2.00;;;;;25.01;48.51;98582.69;4935270;28;111626;-61
2022/06/27 07:03:34;;;;;;;;;3.00;2.00;;;;;25.02;48.51;98587.09;4925967;28;104221;-61
2022/06/27 07:06:03;;;;;;;;;1.67;1.67;;;;;25.02;48.49;98587.09;4940740;28;103052;-61
2022/06/27 07:08:37;;;;;;;;;2.67;2.67;;;;;25.04;48.74;98581.25;4936726;28;102104;-61
2022/06/27 07:11:05;;;;;;;;;2.00;2.00;;;;;25.04;48.69;98579.31;4935686;28;102357;-61
2022/06/27 07:13:32;;;;;;;;;2.00;2.00;;;;;25.04;48.60;98584.00;4945964;28;103999;-61
2022/06/27 07:15:59;;;;;;;;;1.33;1.33;;;;;25.03;48.63;98580.44;4944421;28;102387;-61
2022/06/27 07:18:26;;;;;;;;;1.00;1.00;;;;;25.05;48.56;98580.13;4943869;28;103016;-62
2022/06/27 07:20:54;;;;;;;;;2.00;2.00;;;;;25.05;48.34;98582.91;4941076;28;102218;-62
2022/06/27 07:23:21;;;;;;;;;2.00;2.00;;;;;25.04;48.41;98581.25;4944087;28;103592;-62
2022/06/27 07:25:48;;;;;;;;;2.00;2.00;;;;;25.05;48.40;98591.22;4938776;28;102161;-61
2022/06/27 07:28:15;;;;;;;;;0.67;0.67;;;;;25.04;48.39;98575.72;4951332;28;102222;-62
2022/06/27 07:30:43;;;;;;;;;1.33;1.33;;;;;25.06;48.58;98576.25;4945245;28;102290;-62
2022/06/27 07:33:12;;;;;;;;;1.00;1.00;;;;;25.06;48.39;98579.03;4940161;28;103957;-61
2022/06/27 07:35:39;;;;;;;;;2.00;2.00;;;;;25.06;48.38;98577.09;4939960;28;102131;-61
2022/06/27 07:38:06;;;;;;;;;1.67;1.00;;;;;25.07;48.49;98575.97;4940716;28;102550;-61
2022/06/27 07:40:34;;;;;;;;;2.00;2.00;;;;;25.07;48.48;98570.44;4928936;28;102526;-61
2022/06/27 07:43:01;;;;;;;;;2.00;2.00;;;;;25.09;48.31;98581.19;4933624;28;104114;-62
2022/06/27 07:45:28;;;;;;;;;2.00;2.00;;;;;25.08;48.58;98574.03;4937532;28;103898;-61
2022/06/27 07:47:56;;;;;;;;;2.00;2.00;;;;;25.09;48.53;98570.13;4940582;28;102821;-62
2022/06/27 07:50:37;;;;;;;;;1.00;1.00;;;;;25.09;48.38;98572.88;4937507;28;102140;-61
2022/06/27 07:53:11;;;;;;;;;1.67;1.67;;;;;25.09;48.53;98581.19;4940710;28;104175;-61
2022/06/27 07:55:43;;;;;;;;;1.67;1.00;;;;;25.10;48.37;98574.53;4947998;28;102903;-62
2022/06/27 07:58:14;;;;;;;;;2.00;1.00;;;;;25.10;48.61;98577.31;4942617;28;102248;-61
2022/06/27 08:00:43;;;;;;;;;2.00;2.00;;;;;25.10;48.57;98574.53;4938415;28;102630;-62
2022/06/27 08:05:58;;;;;;;;;1.00;1.00;;;;;25.11;48.36;98562.38;4941832;28;105453;-61
2022/06/27 08:08:26;;;;;;;;;2.00;2.00;;;;;25.12;48.55;98564.84;4939271;28;102151;-62
2022/06/27 08:10:53;;;;;;;;;1.00;1.00;;;;;25.13;48.42;98565.63;4938674;28;102278;-62
2022/06/27 08:13:21;;;;;;;;;1.00;1.00;;;;;25.14;48.32;98562.59;4938485;28;104056;-62
2022/06/27 08:15:48;;;;;;;;;1.00;0.67;;;;;25.14;48.32;98570.88;4947490;28;104855;-62
2022/06/27 08:18:15;;;;;;;;;2.00;2.00;;;;;25.14;48.59;98564.53;4948549;28;102435;-62
2022/06/27 08:20:45;;;;;;;;;1.67;1.00;;;;;25.15;48.49;98568.94;4933213;28;104476;-61
2022/06/27 08:23:15;;;;;;;;;1.00;1.00;;;;;25.15;48.55;98563.41;4937916;28;108845;-61
2022/06/27 08:25:43;;;;;;;;;1.67;1.67;;;;;25.15;48.65;98568.94;4937155;28;103446;-62
2022/06/27 08:28:11;;;;;;;;;1.00;1.00;;;;;25.14;48.35;98561.75;4939309;28;102468;-62
2022/06/27 08:30:39;;;;;;;;;3.00;2.00;;;;;25.14;48.50;98559.81;4960776;28;102643;-62
2022/06/27 08:33:06;;;;;;;;;1.67;1.67;;;;;25.15;48.58;98558.72;4931361;28;104192;-61
2022/06/27 08:35:35;;;;;;;;;2.00;1.67;;;;;25.17;48.39;98566.72;4966518;28;102565;-61
2022/06/27 08:38:02;;;;;;;;;1.33;1.33;;;;;25.17;48.39;98556.44;4946804;28;102252;-61
2022/06/27 08:40:31;;;;;;;;;0.67;0.67;;;;;25.18;48.53;98557.28;4944513;28;102509;-61
2022/06/27 08:42:58;;;;;;;;;3.00;2.00;;;;;25.19;48.31;98561.69;4942194;28;104148;-62
2022/06/27 08:45:25;;;;;;;;;2.00;2.00;;;;;25.19;48.34;98561.69;4944156;28;102010;-61
2022/06/27 08:47:56;;;;;;;;;1.67;1.00;;;;;25.20;48.30;98571.66;4934369;28;102412;-62
2022/06/27 08:50:23;;;;;;;;;1.67;1.67;;;;;25.20;48.25;98560.59;4947194;28;102224;-61
2022/06/27 08:52:51;;;;;;;;;1.33;1.33;;;;;25.20;48.19;98564.19;4943356;28;104152;-61
2022/06/27 08:55:18;;;;;;;;;1.33;1.33;;;;;25.20;48.44;98557.81;4932831;28;102414;-62
2022/06/27 08:57:45;;;;;;;;;1.00;1.00;;;;;25.20;48.33;98555.88;4938567;28;105186;-61
2022/06/27 09:00:14;;;;;;;;;1.67;1.67;;;;;25.22;48.39;98561.91;4938126;28;102616;-62
2022/06/27 09:02:44;;;;;;;;;1.00;1.00;;;;;25.22;48.31;98561.09;4939283;28;104078;-62
2022/06/27 09:05:26;;;;;;;;;1.00;1.00;;;;;25.23;48.48;98558.03;4937093;28;102540;-61
2022/06/27 09:07:54;;;;;;;;;1.00;1.00;;;;;25.24;48.40;98567.16;4932856;28;102522;-61
2022/06/27 09:10:29;;;;;;;;;1.00;1.00;;;;;25.25;48.24;98566.06;4932645;28;102393;-61
2022/06/27 09:13:08;;;;;;;;;1.33;1.33;;;;;25.26;48.23;98559.41;4936313;28;104174;-61
2022/06/27 09:15:45;;;;;;;;;1.00;1.00;;;;;25.27;48.23;98561.03;4939062;28;102116;-62
2022/06/27 09:18:17;;;;;;;;;2.00;1.00;;;;;25.27;48.18;98561.84;4936981;28;102485;-62
2022/06/27 09:20:52;;;;;;;;;0.67;0.67;;;;;25.27;48.27;98561.84;4940233;28;102182;-62
2022/06/27 09:23:25;;;;;;;;;1.33;1.33;;;;;25.28;48.40;98557.16;4939165;28;109673;-61
2022/06/27 09:26:05;;;;;;;;;1.00;1.00;;;;;25.27;48.45;98563.78;4912776;28;103973;-61
2022/06/27 09:28:45;;;;;;;;;1.00;0.33;;;;;25.29;48.37;98562.41;4935603;28;102237;-61
2022/06/27 09:31:33;;;;;;;;;2.00;0.67;;;;;25.29;48.08;98559.63;4937365;28;104026;-62
2022/06/27 09:34:03;;;;;;;;;1.00;1.00;;;;;25.30;48.21;98560.44;4941511;28;109585;-62
2022/06/27 09:36:31;;;;;;;;;2.33;2.00;;;;;25.30;48.23;98554.91;4945243;28;102232;-61
2022/06/27 09:39:02;;;;;;;;;2.00;2.00;;;;;25.31;48.24;98556.53;4972981;28;102518;-61
2022/06/27 09:41:30;;;;;;;;;1.67;1.67;;;;;25.31;48.22;98549.06;4939210;28;102292;-61
2022/06/27 09:44:06;;;;;;;;;2.00;2.00;;;;;25.31;48.20;98557.38;4944891;28;109972;-62
2022/06/27 09:46:42;;;;;;;;;1.67;1.33;;;;;25.34;48.38;98547.66;4941276;28;103353;-61
2022/06/27 09:49:14;;;;;;;;;1.67;1.67;;;;;25.35;48.36;98552.09;4936945;28;102298;-62
2022/06/27 09:51:41;;;;;;;;;1.67;1.00;;;;;25.35;48.03;98552.09;4943552;28;102350;-62
2022/06/27 09:54:10;;;;;;;;;1.67;0.00;;;;;25.36;48.32;98561.19;4927022;28;104260;-61
2022/06/27 09:56:39;;;;;;;;;1.00;1.00;;;;;25.35;48.23;98557.63;4940627;28;102257;-61
2022/06/27 09:59:08;;;;;;;;;1.33;1.33;;;;;25.38;48.16;98561.72;4942229;28;102366;-62
2022/06/27 10:01:40;;;;;;;;;2.00;2.00;;;;;25.37;48.07;98560.91;4944344;28;102162;-62
2022/06/27 10:04:09;;;;;;;;;1.00;1.00;;;;;25.38;48.22;98553.41;4934218;28;104186;-62
2022/06/27 10:06:39;;;;;;;;;2.00;2.00;;;;;25.38;48.16;98550.66;4940753;28;102385;-61
2022/06/27 10:09:08;;;;;;;;;2.67;1.67;;;;;25.38;47.92;98554.25;4933809;28;102411;-62
2022/06/27 10:11:36;;;;;;;;;0.67;0.67;;;;;25.39;48.17;98553.13;4941262;28;102400;-61
2022/06/27 10:14:16;;;;;;;;;1.00;1.00;;;;;25.40;47.92;98548.41;4941589;28;104181;-61
2022/06/27 10:16:54;;;;;;;;;1.00;1.00;;;;;25.39;48.23;98536.53;4939796;28;102686;-61
2022/06/27 10:19:22;;;;;;;;;2.00;2.00;;;;;25.42;48.06;98544.22;4935478;28;102213;-61
2022/06/27 10:21:51;;;;;;;;;1.00;1.00;;;;;25.42;48.20;98535.09;4950772;28;102134;-62
2022/06/27 10:24:18;;;;;;;;;1.00;1.00;;;;;25.44;48.22;98539.19;4935903;28;109038;-61
2022/06/27 10:26:46;;;;;;;;;0.67;0.67;;;;;25.44;48.05;98541.97;4942726;28;102246;-61
2022/06/27 10:29:45;;;;;;;;;2.00;2.00;;;;;25.45;47.98;98534.47;4939991;28;102482;-61
2022/06/27 10:32:46;;;;;;;;;2.00;1.33;;;;;25.44;48.20;98525.34;4934038;28;102243;-61
2022/06/27 10:35:14;;;;;;;;;1.33;1.00;;;;;25.46;48.20;98523.13;4919922;28;108817;-61
2022/06/27 10:37:41;;;;;;;;;2.00;2.00;;;;;25.47;48.24;98527.53;4939524;28;102388;-61
2022/06/27 10:40:21;;;;;;;;;1.67;1.00;;;;;25.47;48.15;98527.53;4936883;28;107110;-61
2022/06/27 10:42:55;;;;;;;;;1.67;1.67;;;;;25.48;47.96;98523.66;4945677;28;102175;-61
2022/06/27 10:45:27;;;;;;;;;2.00;2.00;;;;;25.49;47.97;98528.03;4942006;28;108870;-61
2022/06/27 10:47:58;;;;;;;;;1.00;1.00;;;;;25.50;48.07;98526.09;4939722;28;102132;-61
2022/06/27 10:50:26;;;;;;;;;0.67;0.67;;;;;25.51;47.71;98523.03;4942212;28;102086;-61
2022/06/27 10:53:18;;;;;;;;;1.33;1.33;;;;;25.52;47.97;98524.69;4941641;28;105773;-62
2022/06/27 10:55:45;;;;;;;;;2.00;2.00;;;;;25.54;47.96;98518.88;4936983;28;109060;-61
2022/06/27 10:58:23;;;;;;;;;1.00;1.00;;;;;25.55;48.06;98515.81;4933072;28;102134;-61
2022/06/27 11:00:50;;;;;;;;;1.00;1.00;;;;;25.55;48.01;98514.97;4945895;28;102259;-63
2022/06/27 11:03:25;;;;;;;;;0.67;0.00;;;;;25.54;47.97;98508.63;4940277;28;102412;-61
2022/06/27 11:06:00;;;;;;;;;0.67;0.33;;;;;25.54;47.97;98511.38;4940314;28;108934;-61
2022/06/27 11:08:28;;;;;;;;;2.00;2.00;;;;;25.56;48.10;98508.31;4929482;28;102142;-61
2022/06/27 11:10:55;;;;;;;;;1.00;1.00;;;;;25.56;48.05;98500.84;4933636;28;102152;-61
2022/06/27 11:13:41;;;;;;;;;1.00;0.00;;;;;25.58;47.92;98500.53;4947714;28;102294;-61
2022/06/27 11:16:19;;;;;;;;;1.00;1.00;;;;;25.58;48.10;98501.34;4933835;28;108627;-61
2022/06/27 11:18:58;;;;;;;;;2.00;2.00;;;;;25.60;48.03;98489.97;4939326;28;102256;-61
2022/06/27 11:21:34;;;;;;;;;0.33;0.33;;;;;25.60;47.82;98493.56;4929137;28;102376;-61
2022/06/27 11:24:03;;;;;;;;;1.33;1.33;;;;;25.61;47.96;98489.69;4934107;28;102733;-61
2022/06/27 11:26:31;;;;;;;;;0.00;0.00;;;;;25.62;47.83;98483.00;4937799;28;104266;-62
2022/06/27 11:31:59;;;;;;;;;1.00;1.00;;;;;25.62;47.77;98483.00;4917266;28;103331;-61
2022/06/27 11:34:35;;;;;;;;;1.00;1.00;;;;;25.64;47.94;98483.53;4941692;28;102228;-61
2022/06/27 11:37:22;;;;;;;;;1.00;1.00;;;;;25.64;47.99;98474.41;4940418;28;104170;-61
2022/06/27 11:40:00;;;;;;;;;1.00;1.00;;;;;25.65;47.88;98482.41;4932739;28;102345;-61
2022/06/27 11:42:28;;;;;;;;;1.33;0.67;;;;;25.65;47.96;98476.88;4925689;28;102252;-61